Time;durP1;ratioP1;P1;durP2;ratioP2;P2;SDS_P1;SDS_P2;PMS_P1;PMS_P2;Temp;Humidity;BMP_temperature;BMP_pressure;BME280_temperature;BME280_humidity;BME280_pressure;Samples;Min_cycle;Max_cycle;Signal;HPM_P1;HPM_P2
2023/11/07 00:01:19;;;;;;;5.15;3.40;;;;;;;4.89;100.00;97452.09;1225550;75;2909188;-69
2023/11/07 00:03:52;;;;;;;3.60;3.15;;;;;;;4.79;100.00;97440.44;1225141;75;2914784;-68
2023/11/07 00:06:24;;;;;;;4.30;3.60;;;;;;;4.56;100.00;97438.91;1223152;75;2944964;-69
2023/11/07 00:08:57;;;;;;;4.25;3.30;;;;;;;4.62;100.00;97447.25;1225551;75;2916782;-69
2023/11/07 00:11:29;;;;;;;4.55;3.60;;;;;;;4.56;100.00;97443.56;1225634;75;2910296;-68
2023/11/07 00:14:02;;;;;;;3.95;3.30;;;;;;;4.73;100.00;97447.59;1225305;75;2930670;-72
2023/11/07 00:16:37;;;;;;;4.90;3.50;;;;;;;4.46;100.00;97448.91;1225012;75;2917674;-69
2023/11/07 00:19:10;;;;;;;4.50;3.40;;;;;;;4.65;100.00;97454.50;1225426;75;2921176;-67
2023/11/07 00:21:43;;;;;;;2.80;2.30;;;;;;;4.78;100.00;97451.72;1211250;75;3905732;-68
2023/11/07 00:24:17;;;;;;;3.00;2.40;;;;;;;4.77;100.00;97461.81;1221789;75;3105059;-68
2023/11/07 00:26:51;;;;;;;3.25;2.20;;;;;;;4.69;100.00;97453.16;1225072;67;2915773;-68
2023/11/07 00:29:25;;;;;;;2.45;2.25;;;;;;;4.64;100.00;97442.91;1221412;75;2963588;-70
2023/11/07 00:32:00;;;;;;;2.30;1.90;;;;;;;4.65;100.00;97457.94;1225050;75;2915062;-70
2023/11/07 00:34:33;;;;;;;4.10;3.30;;;;;;;4.74;100.00;97453.78;1222371;75;2954235;-71
2023/11/07 00:37:06;;;;;;;3.25;2.75;;;;;;;4.83;100.00;97459.28;1223404;75;2918043;-70
2023/11/07 00:39:39;;;;;;;3.15;2.40;;;;;;;4.80;100.00;97458.22;1223635;75;2925420;-69
2023/11/07 00:42:11;;;;;;;3.90;2.60;;;;;;;4.64;100.00;97459.16;1223901;75;2921759;-68
2023/11/07 00:44:44;;;;;;;2.55;1.95;;;;;;;4.75;100.00;97463.44;1224413;75;2918146;-69
2023/11/07 00:47:19;;;;;;;2.90;1.80;;;;;;;4.72;100.00;97454.25;1222838;75;2987868;-69
2023/11/07 00:49:52;;;;;;;2.55;2.15;;;;;;;4.52;100.00;97475.47;1224478;75;2914106;-69
2023/11/07 00:52:24;;;;;;;5.20;3.20;;;;;;;4.34;100.00;97465.22;1223470;75;2921800;-69
2023/11/07 00:54:57;;;;;;;3.65;2.60;;;;;;;4.59;100.00;97469.78;1223841;75;2922939;-73
2023/11/07 00:57:30;;;;;;;3.15;2.60;;;;;;;4.45;100.00;97466.38;1223988;75;2917497;-70
2023/11/07 01:00:04;;;;;;;4.10;2.40;;;;;;;4.50;100.00;97470.50;1210154;75;3922351;-72
2023/11/07 01:02:39;;;;;;;3.15;2.50;;;;;;;4.57;100.00;97469.47;1223994;75;2915955;-68
2023/11/07 01:05:13;;;;;;;2.05;1.70;;;;;;;4.54;100.00;97464.94;1224473;75;2932040;-69
2023/11/07 01:07:45;;;;;;;4.55;3.00;;;;;;;4.08;100.00;97462.56;1220646;75;3026387;-69
2023/11/07 01:10:18;;;;;;;3.95;3.00;;;;;;;4.25;100.00;97477.47;1221751;75;2930296;-71
2023/11/07 01:12:52;;;;;;;3.95;3.00;;;;;;;4.34;100.00;97476.81;1224161;75;2960996;-69
2023/11/07 01:15:25;;;;;;;3.45;2.60;;;;;;;4.45;100.00;97487.31;1222902;75;2937639;-70
2023/11/07 01:18:02;;;;;;;2.65;2.20;;;;;;;4.49;100.00;97487.94;1224505;75;2912276;-73
2023/11/07 01:20:36;;;;;;;2.45;2.20;;;;;;;4.45;100.00;97490.03;1223950;75;2915350;-69
2023/11/07 01:23:09;;;;;;;2.65;2.00;;;;;;;4.37;100.00;97486.03;1224838;75;2923862;-69
2023/11/07 01:25:41;;;;;;;3.25;2.75;;;;;;;4.16;100.00;97487.47;1224148;75;2910526;-68
2023/11/07 01:28:15;;;;;;;5.00;2.65;;;;;;;4.25;100.00;97495.69;1222345;75;2920785;-70
2023/11/07 01:30:48;;;;;;;3.55;2.55;;;;;;;4.31;100.00;97496.66;1222232;75;2937236;-69
2023/11/07 01:33:23;;;;;;;3.95;2.95;;;;;;;3.96;100.00;97491.19;1223442;75;2916887;-70
2023/11/07 01:35:56;;;;;;;3.85;2.95;;;;;;;4.13;100.00;97489.09;1222516;75;2911837;-69
2023/11/07 01:38:28;;;;;;;2.65;2.30;;;;;;;4.10;100.00;97489.22;1223940;75;2915895;-68
2023/11/07 01:41:01;;;;;;;3.15;2.80;;;;;;;3.86;100.00;97488.81;1224861;75;2934284;-68
2023/11/07 01:43:34;;;;;;;3.70;2.60;;;;;;;4.00;100.00;97491.09;1224086;75;2917905;-72
2023/11/07 01:46:07;;;;;;;3.40;2.45;;;;;;;4.09;100.00;97493.13;1223930;75;2926831;-70
2023/11/07 01:48:43;;;;;;;2.70;2.30;;;;;;;3.96;100.00;97499.31;1221187;75;3051133;-69
2023/11/07 01:51:16;;;;;;;5.90;3.35;;;;;;;3.93;100.00;97502.16;1222254;75;2920487;-69
2023/11/07 01:53:49;;;;;;;4.70;3.35;;;;;;;3.97;100.00;97506.25;1223588;75;2925013;-68
2023/11/07 01:56:23;;;;;;;4.15;3.10;;;;;;;3.99;100.00;97500.38;1224567;75;2928325;-69
2023/11/07 01:58:57;;;;;;;7.05;4.05;;;;;;;3.93;100.00;97505.59;1223549;75;2916395;-70
2023/11/07 02:01:31;;;;;;;8.35;4.10;;;;;;;4.01;100.00;97506.13;1224220;75;2916109;-70
2023/11/07 02:04:06;;;;;;;4.15;3.00;;;;;;;3.99;100.00;97505.81;1223481;75;2917322;-69
2023/11/07 02:06:39;;;;;;;4.00;3.05;;;;;;;3.88;100.00;97508.09;1223930;75;2910545;-70
2023/11/07 02:09:12;;;;;;;5.30;3.50;;;;;;;3.63;100.00;97521.22;1224106;75;2921543;-68
2023/11/07 02:11:44;;;;;;;7.75;4.45;;;;;;;3.77;100.00;97517.28;1223432;75;2923257;-70
2023/11/07 02:14:30;;;;;;;5.25;4.35;;;;;;;3.91;100.00;97518.06;1223817;75;2913986;-70
2023/11/07 02:17:03;;;;;;;4.60;3.70;;;;;;;3.97;100.00;97516.31;1224126;75;2929494;-68
2023/11/07 02:19:39;;;;;;;8.30;5.30;;;;;;;4.31;100.00;97518.34;1223844;75;2914872;-68
2023/11/07 02:22:13;;;;;;;6.00;4.65;;;;;;;4.54;100.00;97528.03;1221182;75;2972592;-72
2023/11/07 02:24:48;;;;;;;5.35;4.40;;;;;;;4.65;100.00;97525.72;1221333;75;2983066;-68
2023/11/07 02:27:22;;;;;;;5.75;4.00;;;;;;;4.67;100.00;97520.63;1223746;75;2913062;-68
2023/11/07 02:29:54;;;;;;;5.70;3.70;;;;;;;4.52;100.00;97529.66;1222902;75;2928025;-72
2023/11/07 02:32:27;;;;;;;4.55;3.60;;;;;;;4.50;100.00;97532.84;1223880;75;2924473;-72
2023/11/07 02:35:00;;;;;;;3.50;2.95;;;;;;;4.55;100.00;97529.56;1223631;75;2915344;-70
2023/11/07 02:37:32;;;;;;;3.20;2.40;;;;;;;4.46;100.00;97532.19;1223604;75;2931529;-71
2023/11/07 02:40:09;;;;;;;2.50;2.25;;;;;;;4.25;100.00;97531.66;1222195;75;2920117;-71
2023/11/07 02:42:42;;;;;;;2.50;2.05;;;;;;;4.26;100.00;97537.88;1224984;67;2919770;-68
2023/11/07 02:45:16;;;;;;;2.75;2.05;;;;;;;4.05;100.00;97547.41;1224269;75;2915009;-69
2023/11/07 02:47:49;;;;;;;2.35;1.90;;;;;;;4.05;100.00;97559.00;1223792;75;2915254;-70
2023/11/07 02:50:22;;;;;;;2.40;2.10;;;;;;;3.87;100.00;97547.94;1222174;75;2966714;-70
2023/11/07 02:52:55;;;;;;;2.95;2.15;;;;;;;4.03;100.00;97550.56;1222688;75;2921930;-68
2023/11/07 02:55:31;;;;;;;4.35;1.95;;;;;;;4.09;100.00;97544.59;1223270;75;2911900;-69
2023/11/07 02:58:03;;;;;;;2.10;1.80;;;;;;;4.03;100.00;97544.38;1223717;75;2920887;-71
2023/11/07 03:00:36;;;;;;;2.80;2.30;;;;;;;3.77;100.00;97554.44;1223226;75;2911813;-69
2023/11/07 03:03:09;;;;;;;3.30;2.40;;;;;;;3.73;100.00;97551.06;1223719;75;2924045;-70
2023/11/07 03:05:42;;;;;;;4.55;3.50;;;;;;;3.54;100.00;97558.97;1222964;75;2917208;-69
2023/11/07 03:08:14;;;;;;;5.10;3.20;;;;;;;3.74;100.00;97569.59;1222571;75;2927796;-68
2023/11/07 03:10:50;;;;;;;3.60;2.90;;;;;;;3.72;100.00;97568.53;1225018;75;2920255;-69
2023/11/07 03:13:22;;;;;;;3.35;2.85;;;;;;;3.85;100.00;97566.59;1224079;75;2927677;-70
2023/11/07 03:15:55;;;;;;;2.85;2.25;;;;;;;3.84;100.00;97565.81;1221745;75;2983864;-69
2023/11/07 03:18:28;;;;;;;2.55;2.00;;;;;;;3.83;100.00;97566.28;1225013;75;2916293;-69
2023/11/07 03:21:01;;;;;;;2.35;1.70;;;;;;;3.69;100.00;97564.72;1224518;75;2910109;-68
2023/11/07 03:23:33;;;;;;;2.80;2.00;;;;;;;3.61;100.00;97566.91;1223545;75;2920681;-69
2023/11/07 03:26:09;;;;;;;3.75;2.40;;;;;;;3.48;100.00;97576.94;1223783;75;2915268;-71
2023/11/07 03:28:42;;;;;;;4.20;2.70;;;;;;;3.39;100.00;97582.97;1223047;75;2921522;-68
2023/11/07 03:31:15;;;;;;;4.20;3.05;;;;;;;3.33;100.00;97589.34;1224060;75;2905815;-69
2023/11/07 03:33:48;;;;;;;3.85;3.10;;;;;;;3.51;100.00;97599.66;1223191;75;2926260;-70
2023/11/07 03:36:20;;;;;;;5.05;3.35;;;;;;;3.30;100.00;97596.38;1223942;75;2913148;-69
2023/11/07 03:38:53;;;;;;;5.15;2.95;;;;;;;3.39;100.00;97599.22;1217852;75;3151568;-71
2023/11/07 03:41:28;;;;;;;3.65;3.10;;;;;;;3.42;100.00;97598.34;1223567;75;2925529;-69
2023/11/07 03:44:01;;;;;;;3.15;2.65;;;;;;;3.49;100.00;97594.69;1221312;75;2979399;-70
2023/11/07 03:46:34;;;;;;;4.20;3.00;;;;;;;3.32;100.00;97588.59;1223059;75;2925819;-70
2023/11/07 03:49:07;;;;;;;3.75;3.00;;;;;;;3.29;100.00;97597.53;1222431;75;2922883;-72
2023/11/07 03:51:39;;;;;;;3.90;3.10;;;;;;;3.34;100.00;97594.34;1223449;75;2918132;-71
2023/11/07 03:54:12;;;;;;;3.20;2.60;;;;;;;3.35;100.00;97595.09;1223555;75;2932068;-72
2023/11/07 03:56:50;;;;;;;3.35;2.40;;;;;;;3.18;100.00;97592.44;1223275;75;2912411;-68
2023/11/07 03:59:23;;;;;;;2.50;2.30;;;;;;;3.26;100.00;97600.34;1223268;75;2918007;-72
2023/11/07 04:01:55;;;;;;;3.40;2.90;;;;;;;2.94;100.00;97594.59;1222497;75;2933655;-69
2023/11/07 04:04:28;;;;;;;3.70;2.90;;;;;;;3.06;100.00;97600.50;1223675;75;2932954;-69
2023/11/07 04:07:01;;;;;;;4.10;2.80;;;;;;;3.01;100.00;97603.69;1223378;75;2922852;-70
2023/11/07 04:09:34;;;;;;;2.85;2.40;;;;;;;3.04;100.00;97602.88;1222349;75;2928383;-70
2023/11/07 04:12:10;;;;;;;2.60;2.30;;;;;;;3.02;100.00;97600.59;1222652;75;2922920;-72
2023/11/07 04:14:45;;;;;;;3.25;2.40;;;;;;;3.20;100.00;97600.88;1222667;75;2925406;-69
2023/11/07 04:17:18;;;;;;;2.25;1.85;;;;;;;3.20;100.00;97606.28;1222296;75;2923574;-70
2023/11/07 04:19:50;;;;;;;3.80;2.30;;;;;;;3.13;100.00;97608.44;1222434;75;2916033;-69
2023/11/07 04:22:23;;;;;;;2.00;1.80;;;;;;;3.17;100.00;97607.13;1221426;75;2926015;-70
2023/11/07 04:24:56;;;;;;;2.45;1.95;;;;;;;3.17;100.00;97615.25;1221577;75;2930488;-69
2023/11/07 04:27:32;;;;;;;3.00;2.50;;;;;;;2.98;100.00;97616.91;1221824;75;2921513;-67
2023/11/07 04:30:06;;;;;;;3.95;2.00;;;;;;;3.14;100.00;97616.09;1221920;75;2925123;-70
2023/11/07 04:32:39;;;;;;;2.15;1.70;;;;;;;3.17;100.00;97609.06;1223424;75;2920859;-72
2023/11/07 04:35:12;;;;;;;1.55;1.45;;;;;;;3.18;100.00;97607.91;1223782;75;2916329;-71
2023/11/07 04:37:45;;;;;;;1.85;1.55;;;;;;;3.12;100.00;97615.00;1222925;75;2923228;-69
2023/11/07 04:40:19;;;;;;;4.20;2.65;;;;;;;3.10;100.00;97606.56;1223018;75;2920493;-71
2023/11/07 04:42:54;;;;;;;3.90;2.45;;;;;;;3.05;100.00;97617.91;1223323;75;2918801;-69
2023/11/07 04:45:26;;;;;;;2.70;2.40;;;;;;;2.99;100.00;97623.81;1222206;75;2924784;-70
2023/11/07 04:47:59;;;;;;;5.15;2.55;;;;;;;2.98;100.00;97614.22;1222430;75;2927372;-69
2023/11/07 04:50:33;;;;;;;2.55;2.10;;;;;;;3.05;100.00;97618.66;1223679;75;2927952;-68
2023/11/07 04:53:07;;;;;;;4.00;2.40;;;;;;;2.94;100.00;97626.28;1222600;75;2926275;-68
2023/11/07 04:55:39;;;;;;;5.65;3.10;;;;;;;2.74;100.00;97624.47;1221020;75;3004066;-69
2023/11/07 04:58:16;;;;;;;4.30;3.20;;;;;;;3.01;100.00;97622.63;1223524;75;2918565;-69
2023/11/07 05:00:49;;;;;;;3.30;2.70;;;;;;;3.07;100.00;97621.69;1222917;75;2928127;-70
2023/11/07 05:03:22;;;;;;;3.40;2.60;;;;;;;2.88;100.00;97627.97;1223751;75;2928979;-70
2023/11/07 05:05:55;;;;;;;3.35;2.60;;;;;;;3.01;100.00;97630.75;1222751;75;2938093;-70
2023/11/07 05:08:28;;;;;;;3.70;2.65;;;;;;;2.96;100.00;97630.09;1221510;75;2921671;-70
2023/11/07 05:11:00;;;;;;;8.40;5.55;;;;;;;2.96;100.00;97632.78;1222517;75;2924393;-70
2023/11/07 05:13:36;;;;;;;8.55;5.30;;;;;;;3.02;100.00;97635.72;1221994;75;2923445;-69
2023/11/07 05:16:10;;;;;;;7.00;4.70;;;;;;;3.05;100.00;97640.28;1222209;75;2926973;-73
2023/11/07 05:18:43;;;;;;;5.75;3.90;;;;;;;3.02;100.00;97643.09;1222416;75;2918899;-70
2023/11/07 05:21:16;;;;;;;7.80;5.55;;;;;;;2.78;100.00;97643.28;1209825;75;3824507;-71
2023/11/07 05:23:48;;;;;;;8.35;6.05;;;;;;;2.80;100.00;97640.91;1221460;75;2926694;-69
2023/11/07 05:26:22;;;;;;;9.95;7.00;;;;;;;2.72;100.00;97645.75;1223292;75;2926625;-71
2023/11/07 05:28:58;;;;;;;7.55;6.05;;;;;;;2.98;100.00;97640.47;1220342;75;2917943;-69
2023/11/07 05:31:31;;;;;;;7.05;5.00;;;;;;;3.08;100.00;97642.16;1223787;75;2933941;-70
2023/11/07 05:34:03;;;;;;;8.25;6.05;;;;;;;2.93;100.00;97639.03;1223956;75;2928439;-68
2023/11/07 05:36:37;;;;;;;11.10;8.30;;;;;;;2.78;100.00;97646.75;1224105;75;2922328;-70
2023/11/07 05:39:09;;;;;;;15.65;11.80;;;;;;;2.81;100.00;97642.44;1223882;75;2930669;-70
2023/11/07 05:41:42;;;;;;;18.60;12.95;;;;;;;2.98;100.00;97641.25;1221167;75;3050975;-68
2023/11/07 05:44:18;;;;;;;13.55;10.35;;;;;;;3.01;100.00;97646.97;1223876;75;2924943;-69
2023/11/07 05:46:50;;;;;;;10.45;8.60;;;;;;;3.01;100.00;97653.16;1223868;75;2926129;-66
2023/11/07 05:49:23;;;;;;;8.95;6.90;;;;;;;2.96;100.00;97654.44;1224542;75;2938387;-68
2023/11/07 05:51:56;;;;;;;7.45;5.40;;;;;;;2.95;100.00;97663.72;1224082;75;2920156;-69
2023/11/07 05:54:28;;;;;;;6.50;4.95;;;;;;;2.81;100.00;97671.41;1223973;75;2931512;-70
2023/11/07 05:57:01;;;;;;;7.70;5.55;;;;;;;2.76;100.00;97675.38;1224428;75;2939254;-67
2023/11/07 05:59:37;;;;;;;6.85;5.05;;;;;;;2.88;100.00;97674.69;1224155;75;2925564;-68
2023/11/07 06:02:10;;;;;;;6.00;4.20;;;;;;;2.72;100.00;97680.13;1223912;75;2923801;-69
2023/11/07 06:04:43;;;;;;;4.60;3.50;;;;;;;2.83;100.00;97680.63;1224335;75;2923361;-67
2023/11/07 06:07:16;;;;;;;5.70;3.85;;;;;;;2.64;100.00;97695.72;1223825;75;2923529;-69
2023/11/07 06:09:48;;;;;;;6.70;4.60;;;;;;;2.72;100.00;97697.09;1222836;75;2929625;-69
2023/11/07 06:12:21;;;;;;;6.00;4.30;;;;;;;2.80;100.00;97689.56;1224993;75;2927276;-66
2023/11/07 06:14:56;;;;;;;4.90;3.65;;;;;;;2.91;100.00;97705.53;1223570;75;2936475;-68
2023/11/07 06:17:29;;;;;;;5.65;4.20;;;;;;;2.98;100.00;97705.38;1223271;75;2919672;-70
2023/11/07 06:20:03;;;;;;;5.60;4.20;;;;;;;3.06;100.00;97704.03;1222796;75;2964497;-68
2023/11/07 06:22:36;;;;;;;4.60;3.85;;;;;;;3.16;100.00;97704.94;1222093;75;2923419;-68
2023/11/07 06:25:13;;;;;;;4.90;3.85;;;;;;;3.21;100.00;97712.53;1224651;75;2920860;-68
2023/11/07 06:27:47;;;;;;;4.15;3.00;;;;;;;3.22;100.00;97719.47;1223112;75;2925683;-68
2023/11/07 06:30:29;;;;;;;3.60;2.80;;;;;;;3.15;100.00;97730.47;1223465;75;2921655;-69
2023/11/07 06:33:02;;;;;;;3.70;2.85;;;;;;;3.30;100.00;97725.47;1223364;75;2918316;-69
2023/11/07 06:35:35;;;;;;;4.70;3.50;;;;;;;3.91;100.00;97724.63;1222354;75;2926034;-68
2023/11/07 06:38:07;;;;;;;13.35;4.20;;;;;;;4.87;100.00;97728.44;1223268;75;2925826;-68
2023/11/07 06:40:40;;;;;;;8.80;4.55;;;;;;;6.07;100.00;97724.84;1223130;75;2917987;-68
2023/11/07 06:43:12;;;;;;;6.75;3.80;;;;;;;7.82;100.00;97722.63;1222776;75;2925333;-68
2023/11/07 06:45:48;;;;;;;7.25;3.40;;;;;;;9.68;94.84;97729.59;1221656;75;2929117;-69
2023/11/07 06:48:20;;;;;;;3.55;2.45;;;;;;;11.21;85.52;97730.88;1222953;75;2923481;-69
2023/11/07 06:50:54;;;;;;;3.60;2.70;;;;;;;10.56;84.62;97735.63;1222784;75;2924679;-68
2023/11/07 06:53:28;;;;;;;4.15;2.75;;;;;;;12.10;74.74;97737.94;1222373;75;2930439;-71
2023/11/07 06:56:04;;;;;;;4.35;2.65;;;;;;;10.75;78.97;97744.41;1223248;75;2924071;-70
2023/11/07 06:58:39;;;;;;;3.75;2.50;;;;;;;12.00;74.72;97739.31;1222971;75;2929194;-69
2023/11/07 07:01:15;;;;;;;2.60;2.35;;;;;;;13.16;66.83;97743.50;1221665;75;2933491;-70
2023/11/07 07:03:48;;;;;;;3.80;2.75;;;;;;;11.19;71.36;97749.03;1223504;75;2918397;-69
2023/11/07 07:06:23;;;;;;;8.75;4.85;;;;;;;9.11;86.76;97751.53;1224745;75;2920517;-69
2023/11/07 07:08:56;;;;;;;8.30;6.15;;;;;;;8.71;93.75;97753.38;1210816;75;3898925;-68
2023/11/07 07:11:29;;;;;;;9.95;6.30;;;;;;;10.91;79.87;97754.84;1223655;75;2923868;-66
2023/11/07 07:14:02;;;;;;;10.00;7.65;;;;;;;12.33;70.78;97758.84;1224270;75;2922625;-68
2023/11/07 07:16:38;;;;;;;8.45;6.30;;;;;;;13.79;65.39;97755.56;1223469;75;2938268;-70
2023/11/07 07:19:17;;;;;;;10.90;6.75;;;;;;;13.73;63.94;97754.78;1224698;75;2917681;-69
2023/11/07 07:21:53;;;;;;;9.60;6.25;;;;;;;14.57;62.01;97759.75;1222324;75;2943215;-70
2023/11/07 07:24:27;;;;;;;7.20;5.50;;;;;;;18.09;54.27;97759.31;1222428;75;2924878;-70
2023/11/07 07:27:00;;;;;;;7.30;5.05;;;;;;;18.41;52.73;97753.81;1222845;75;2920702;-72
2023/11/07 07:29:32;;;;;;;6.75;4.05;;;;;;;19.70;50.23;97756.41;1223533;75;2925390;-69
2023/11/07 07:32:11;;;;;;;4.10;3.05;;;;;;;20.70;47.14;97751.22;1224508;75;2927157;-68
2023/11/07 07:34:44;;;;;;;4.75;2.70;;;;;;;21.45;45.27;97746.75;1224005;75;2923839;-71
2023/11/07 07:37:20;;;;;;;3.50;2.30;;;;;;;21.81;44.42;97743.22;1223126;75;2926616;-68
2023/11/07 07:39:52;;;;;;;2.80;2.10;;;;;;;22.07;43.71;97731.81;1224190;75;2937084;-72
2023/11/07 07:42:27;;;;;;;4.15;3.40;;;;;;;20.56;46.94;97733.84;1222565;75;2924827;-70
2023/11/07 07:44:59;;;;;;;10.10;5.05;;;;;;;19.91;48.62;97737.03;1219818;75;3137379;-72
2023/11/07 07:47:35;;;;;;;8.40;4.35;;;;;;;20.49;48.16;97740.03;1215957;75;3478472;-68
2023/11/07 07:50:10;;;;;;;7.55;4.35;;;;;;;19.99;48.70;97732.31;1224486;75;2924078;-69
2023/11/07 07:52:45;;;;;;;5.15;3.10;;;;;;;19.89;49.04;97733.28;1223786;75;2920315;-72
2023/11/07 07:55:19;;;;;;;4.25;2.80;;;;;;;20.19;47.59;97728.06;1223921;75;2931932;-70
2023/11/07 07:57:51;;;;;;;4.75;2.55;;;;;;;20.20;47.97;97735.16;1223463;75;2930654;-70
2023/11/07 08:00:30;;;;;;;3.40;2.25;;;;;;;19.64;49.98;97735.56;1224339;75;2925599;-70
2023/11/07 08:03:06;;;;;;;3.10;2.20;;;;;;;19.71;50.07;97741.22;1224137;75;2926081;-68
2023/11/07 08:05:40;;;;;;;3.75;2.80;;;;;;;19.43;49.57;97741.75;1223417;75;2920825;-70
2023/11/07 08:08:14;;;;;;;3.95;2.60;;;;;;;18.81;50.46;97753.22;1223795;75;2920703;-68
2023/11/07 08:10:48;;;;;;;5.30;2.95;;;;;;;17.57;53.19;97749.38;1224563;75;2923448;-69
2023/11/07 08:13:20;;;;;;;4.95;3.60;;;;;;;16.82;56.42;97756.16;1224390;75;2933552;-69
2023/11/07 08:15:53;;;;;;;5.95;3.65;;;;;;;16.15;57.11;97749.81;1223212;75;2921952;-68
2023/11/07 08:18:31;;;;;;;3.40;2.50;;;;;;;17.08;56.25;97752.91;1222861;75;2923400;-70
2023/11/07 08:21:05;;;;;;;5.30;3.50;;;;;;;16.05;58.49;97750.66;1224840;75;2926684;-71
2023/11/07 08:23:37;;;;;;;4.30;3.45;;;;;;;15.16;61.57;97752.47;1223983;75;2928189;-68
2023/11/07 08:26:11;;;;;;;7.00;3.00;;;;;;;16.11;59.85;97746.56;1223777;75;2921343;-69
2023/11/07 08:28:44;;;;;;;6.90;3.55;;;;;;;14.77;63.13;97744.97;1223438;75;2918509;-70
2023/11/07 08:31:17;;;;;;;6.35;3.85;;;;;;;14.40;65.13;97749.44;1223428;75;2929746;-69
2023/11/07 08:33:52;;;;;;;6.30;3.30;;;;;;;14.15;66.67;97739.41;1221591;75;2957300;-68
2023/11/07 08:36:25;;;;;;;5.65;3.85;;;;;;;13.67;69.31;97738.28;1223640;75;2922318;-69
2023/11/07 08:38:59;;;;;;;5.20;3.50;;;;;;;13.92;69.41;97739.34;1222512;75;2928175;-68
2023/11/07 08:41:32;;;;;;;6.60;4.00;;;;;;;13.37;71.40;97737.88;1223780;75;2937351;-70
2023/11/07 08:44:08;;;;;;;4.55;3.20;;;;;;;13.40;72.96;97737.66;1224358;75;2922277;-67
2023/11/07 08:46:40;;;;;;;6.00;3.80;;;;;;;13.31;74.90;97735.09;1223790;75;2922061;-69
2023/11/07 08:49:16;;;;;;;5.75;3.85;;;;;;;13.74;73.35;97737.78;1224107;75;2918210;-70
2023/11/07 08:51:51;;;;;;;4.80;2.85;;;;;;;14.07;71.39;97741.91;1223065;75;2920515;-67
2023/11/07 08:54:24;;;;;;;3.20;2.35;;;;;;;15.06;67.25;97738.94;1222770;75;2933137;-68
2023/11/07 08:56:57;;;;;;;4.55;3.40;;;;;;;13.85;73.66;97742.56;1223021;75;2926947;-68
2023/11/07 08:59:32;;;;;;;8.20;3.25;;;;;;;13.62;72.96;97739.75;1223738;75;2923686;-70
2023/11/07 09:02:04;;;;;;;5.50;3.20;;;;;;;13.78;73.79;97737.53;1222444;75;2931456;-71
2023/11/07 09:04:43;;;;;;;7.25;3.30;;;;;;;14.38;70.33;97742.94;1220374;75;3008303;-67
2023/11/07 09:07:16;;;;;;;4.70;3.40;;;;;;;14.30;71.27;97733.66;1222790;75;2922209;-68
2023/11/07 09:09:49;;;;;;;4.10;2.40;;;;;;;14.62;69.28;97731.44;1223442;75;2925591;-69
2023/11/07 09:12:22;;;;;;;3.65;2.40;;;;;;;15.32;66.24;97732.34;1223867;75;2921888;-71
2023/11/07 09:14:54;;;;;;;5.35;2.85;;;;;;;16.03;65.24;97734.59;1222189;75;2932304;-67
2023/11/07 09:17:27;;;;;;;2.55;1.85;;;;;;;18.02;60.69;97723.91;1219465;75;2922072;-69
2023/11/07 09:20:02;;;;;;;5.30;2.30;;;;;;;16.00;64.08;97724.56;1223462;75;2920698;-73
2023/11/07 09:22:35;;;;;;;3.35;2.50;;;;;;;16.69;63.44;97728.34;1223568;75;2922891;-69
2023/11/07 09:25:10;;;;;;;3.15;2.35;;;;;;;18.92;59.38;97725.28;1222656;75;2928670;-69
2023/11/07 09:27:43;;;;;;;1.90;1.45;;;;;;;19.43;56.87;97725.09;1222859;75;2923933;-70
2023/11/07 09:30:17;;;;;;;2.80;2.10;;;;;;;18.30;55.87;97724.25;1222646;75;2928190;-72
2023/11/07 09:32:50;;;;;;;3.85;2.10;;;;;;;18.30;56.54;97724.25;1223223;75;2921608;-68
2023/11/07 09:35:25;;;;;;;2.60;1.80;;;;;;;20.56;53.29;97725.50;1223987;75;2929933;-69
2023/11/07 09:37:58;;;;;;;2.15;1.20;;;;;;;20.02;52.08;97719.38;1219392;75;2929294;-74
2023/11/07 09:40:31;;;;;;;2.70;1.70;;;;;;;19.59;53.06;97712.16;1223690;75;2922263;-73
2023/11/07 09:43:06;;;;;;;3.20;2.15;;;;;;;20.72;51.18;97716.00;1223097;75;2913773;-69
2023/11/07 09:45:43;;;;;;;2.30;1.60;;;;;;;21.04;50.61;97707.31;1223058;75;2922914;-71
2023/11/07 09:48:19;;;;;;;2.20;1.50;;;;;;;20.37;50.26;97701.41;1223300;75;2928870;-70
2023/11/07 09:50:57;;;;;;;1.55;1.00;;;;;;;22.22;46.37;97697.66;1223959;75;2920376;-70
2023/11/07 09:53:32;;;;;;;1.90;1.20;;;;;;;22.70;46.38;97697.16;1223879;75;2914878;-71
2023/11/07 09:56:10;;;;;;;1.60;1.00;;;;;;;23.47;45.99;97689.41;1221293;75;2922468;-70
2023/11/07 09:58:53;;;;;;;1.80;1.10;;;;;;;22.67;46.06;97690.63;1223497;75;2921988;-69
2023/11/07 10:01:26;;;;;;;1.80;1.05;;;;;;;23.61;45.29;97685.06;1223467;75;2915534;-70
2023/11/07 10:04:02;;;;;;;2.00;1.30;;;;;;;23.09;45.50;97678.34;1222908;75;2922693;-71
2023/11/07 10:06:39;;;;;;;4.15;2.30;;;;;;;23.03;44.85;97683.38;1222265;75;2920859;-71
2023/11/07 10:09:14;;;;;;;1.80;1.00;;;;;;;23.65;43.90;97679.13;1224244;75;2919438;-68
2023/11/07 10:11:53;;;;;;;1.90;1.10;;;;;;;23.10;45.33;97679.84;1224633;75;2920882;-71
2023/11/07 10:14:26;;;;;;;1.95;0.70;;;;;;;23.94;44.03;97671.16;1224063;75;2925742;-70
2023/11/07 10:17:03;;;;;;;1.50;0.70;;;;;;;23.56;41.48;97676.91;1222406;75;2940672;-72
2023/11/07 10:19:36;;;;;;;1.40;0.70;;;;;;;23.55;44.23;97670.59;1222404;75;2928238;-72
2023/11/07 10:22:12;;;;;;;2.35;0.80;;;;;;;23.95;42.11;97666.31;1223517;75;2924519;-71
2023/11/07 10:24:48;;;;;;;1.20;0.60;;;;;;;22.91;44.48;97661.41;1222805;75;2928473;-72
2023/11/07 10:27:31;;;;;;;2.75;0.80;;;;;;;22.38;45.29;97656.59;1223510;75;2939269;-72
2023/11/07 10:30:04;;;;;;;1.80;1.00;;;;;;;24.54;42.66;97645.44;1222450;75;2925974;-71
2023/11/07 10:32:53;;;;;;;1.85;0.60;;;;;;;24.61;41.98;97644.63;1218070;75;3250587;-70
2023/11/07 10:35:26;;;;;;;0.35;0.35;;;;;;;23.96;41.35;97640.59;1223304;75;2918782;-70
2023/11/07 10:38:01;;;;;;;1.00;0.55;;;;;;;24.45;40.82;97630.72;1223069;75;2932523;-73
2023/11/07 10:40:42;;;;;;;2.95;1.00;;;;;;;23.59;43.18;97634.63;1222581;75;2921155;-68
2023/11/07 10:43:15;;;;;;;0.35;0.35;;;;;;;24.63;41.20;97625.22;1224289;75;2922232;-67
2023/11/07 10:45:50;;;;;;;1.85;0.40;;;;;;;23.60;42.09;97624.19;1224239;75;2930243;-68
2023/11/07 10:48:22;;;;;;;2.05;0.50;;;;;;;24.83;40.39;97626.88;1223502;75;2922387;-74
2023/11/07 10:50:56;;;;;;;0.95;0.55;;;;;;;22.06;44.12;97621.59;1222721;75;2923830;-72
2023/11/07 10:53:31;;;;;;;2.20;0.50;;;;;;;23.30;43.03;97611.81;1223749;75;2924492;-74
2023/11/07 10:56:09;;;;;;;1.15;0.60;;;;;;;24.53;40.73;97615.94;1221632;75;2923099;-71
2023/11/07 10:58:51;;;;;;;1.50;0.70;;;;;;;23.29;41.86;97607.53;1221145;67;2946592;-70
2023/11/07 11:01:24;;;;;;;1.30;0.50;;;;;;;24.99;41.60;97612.69;1223035;75;2931818;-72
2023/11/07 11:04:02;;;;;;;0.75;0.40;;;;;;;23.91;41.15;97602.41;1223605;75;2925381;-71
2023/11/07 11:06:36;;;;;;;1.20;0.60;;;;;;;23.65;42.41;97597.31;1223082;75;2929749;-72
2023/11/07 11:09:17;;;;;;;1.60;0.60;;;;;;;24.08;42.50;97584.97;1223472;75;2922078;-72
2023/11/07 11:11:53;;;;;;;0.95;0.40;;;;;;;23.90;42.46;97591.78;1223562;75;2930066;-71
2023/11/07 11:14:26;;;;;;;1.55;0.70;;;;;;;25.18;41.31;97584.13;1223300;75;2944614;-70
2023/11/07 11:17:08;;;;;;;1.05;0.40;;;;;;;25.86;39.18;97588.13;1223196;75;2930890;-72
2023/11/07 11:19:48;;;;;;;0.60;0.35;;;;;;;25.51;39.38;97591.00;1223267;75;2923555;-74
2023/11/07 11:22:30;;;;;;;3.40;0.40;;;;;;;24.79;39.18;97581.00;1224409;75;2922908;-70
2023/11/07 11:25:21;;;;;;;0.95;0.55;;;;;;;24.49;40.58;97579.25;1223249;75;2920103;-70
2023/11/07 11:28:04;;;;;;;0.75;0.40;;;;;;;25.88;38.92;97567.88;1222363;75;2920736;-72
2023/11/07 11:30:44;;;;;;;2.30;0.70;;;;;;;24.63;39.35;97567.16;1221451;75;2929532;-71
2023/11/07 11:33:18;;;;;;;1.20;0.60;;;;;;;25.55;39.62;97570.22;1202559;75;4073320;-73
2023/11/07 11:35:52;;;;;;;1.60;0.70;;;;;;;25.56;38.99;97555.63;1223452;75;2930031;-72
2023/11/07 11:38:41;;;;;;;0.65;0.50;;;;;;;26.70;37.89;97554.41;1222168;75;2923414;-73
2023/11/07 11:41:17;;;;;;;0.85;0.50;;;;;;;26.15;38.58;97565.06;1222458;75;2920552;-72
2023/11/07 11:44:15;;;;;;;1.00;0.50;;;;;;;24.60;39.66;97559.16;1223815;75;2921268;-74
2023/11/07 11:46:48;;;;;;;1.35;0.80;;;;;;;23.37;41.51;97549.56;1224504;75;2918204;-72
2023/11/07 11:49:22;;;;;;;0.90;0.50;;;;;;;25.93;39.24;97539.59;1223637;75;2917832;-71